sensor_id;sensor_type;location;lat;lon;timestamp;pressure;altitude;pressure_sealevel;temperature;humidity
2188;BME280;1100;52.014;8.540;2022-12-29T00:01:09;98876.72;;;8.35;92.61
2188;BME280;1100;52.014;8.540;2022-12-29T00:03:34;98873.94;;;8.35;92.74
2188;BME280;1100;52.014;8.540;2022-12-29T00:06:00;98860.41;;;8.37;92.66
2188;BME280;1100;52.014;8.540;2022-12-29T00:08:26;98867.50;;;8.38;92.63
2188;BME280;1100;52.014;8.540;2022-12-29T00:11:17;98850.88;;;8.38;92.74
2188;BME280;1100;52.014;8.540;2022-12-29T00:13:44;98868.59;;;8.41;92.45
2188;BME280;1100;52.014;8.540;2022-12-29T00:16:28;98865.06;;;8.40;92.74
2188;BME280;1100;52.014;8.540;2022-12-29T00:18:54;98868.91;;;8.43;92.77
2188;BME280;1100;52.014;8.540;2022-12-29T00:21:21;98852.94;;;8.47;92.71
2188;BME280;1100;52.014;8.540;2022-12-29T00:24:05;98846.63;;;8.46;92.69
2188;BME280;1100;52.014;8.540;2022-12-29T00:26:34;98846.16;;;8.48;92.82
2188;BME280;1100;52.014;8.540;2022-12-29T00:29:25;98838.47;;;8.52;92.59
2188;BME280;1100;52.014;8.540;2022-12-29T00:32:09;98826.94;;;8.54;92.80
2188;BME280;1100;52.014;8.540;2022-12-29T00:34:54;98823.41;;;8.53;92.68
2188;BME280;1100;52.014;8.540;2022-12-29T00:37:40;98821.75;;;8.56;92.74
2188;BME280;1100;52.014;8.540;2022-12-29T00:40:25;98816.22;;;8.56;92.61
2188;BME280;1100;52.014;8.540;2022-12-29T00:43:09;98814.69;;;8.55;92.48
2188;BME280;1100;52.014;8.540;2022-12-29T00:45:53;98820.97;;;8.55;92.76
2188;BME280;1100;52.014;8.540;2022-12-29T00:48:18;98821.63;;;8.59;92.50
2188;BME280;1100;52.014;8.540;2022-12-29T00:51:03;98818.84;;;8.59;92.69
2188;BME280;1100;52.014;8.540;2022-12-29T00:53:29;98807.44;;;8.57;92.50
2188;BME280;1100;52.014;8.540;2022-12-29T00:55:54;98807.44;;;8.57;92.68
2188;BME280;1100;52.014;8.540;2022-12-29T00:58:19;98800.66;;;8.58;92.66
2188;BME280;1100;52.014;8.540;2022-12-29T01:00:45;98804.69;;;8.57;92.69
2188;BME280;1100;52.014;8.540;2022-12-29T01:03:10;98805.75;;;8.60;92.73
2188;BME280;1100;52.014;8.540;2022-12-29T01:05:36;98774.53;;;8.59;92.53
2188;BME280;1100;52.014;8.540;2022-12-29T01:08:02;98792.38;;;8.58;92.58
2188;BME280;1100;52.014;8.540;2022-12-29T01:10:27;98776.06;;;8.60;92.49
2188;BME280;1100;52.014;8.540;2022-12-29T01:12:52;98788.69;;;8.62;92.52
2188;BME280;1100;52.014;8.540;2022-12-29T01:15:18;98782.06;;;8.59;92.37
2188;BME280;1100;52.014;8.540;2022-12-29T01:17:43;98785.09;;;8.52;92.33
2188;BME280;1100;52.014;8.540;2022-12-29T01:20:09;98774.31;;;8.54;92.66
2188;BME280;1100;52.014;8.540;2022-12-29T01:22:35;98781.28;;;8.58;92.82
2188;BME280;1100;52.014;8.540;2022-12-29T01:25:01;98791.59;;;8.58;92.76
2188;BME280;1100;52.014;8.540;2022-12-29T01:27:26;98781.94;;;8.63;92.88
2188;BME280;1100;52.014;8.540;2022-12-29T01:29:52;98783.16;;;8.71;92.81
2188;BME280;1100;52.014;8.540;2022-12-29T01:32:17;98779.19;;;8.72;92.61
2188;BME280;1100;52.014;8.540;2022-12-29T01:34:42;98775.94;;;8.74;92.43
2188;BME280;1100;52.014;8.540;2022-12-29T01:37:08;98768.84;;;8.72;92.64
2188;BME280;1100;52.014;8.540;2022-12-29T01:39:33;98768.56;;;8.70;92.64
2188;BME280;1100;52.014;8.540;2022-12-29T01:41:59;98773.78;;;8.68;92.47
2188;BME280;1100;52.014;8.540;2022-12-29T01:44:55;98769.94;;;8.66;92.64
2188;BME280;1100;52.014;8.540;2022-12-29T01:47:57;98747.00;;;8.65;92.73
2188;BME280;1100;52.014;8.540;2022-12-29T01:50:33;98746.22;;;8.65;92.77
2188;BME280;1100;52.014;8.540;2022-12-29T01:53:02;98751.28;;;8.66;92.83
2188;BME280;1100;52.014;8.540;2022-12-29T01:55:32;98756.22;;;8.71;92.97
2188;BME280;1100;52.014;8.540;2022-12-29T01:58:02;98742.53;;;8.77;93.13
2188;BME280;1100;52.014;8.540;2022-12-29T02:00:29;98755.47;;;8.80;93.12
2188;BME280;1100;52.014;8.540;2022-12-29T02:02:54;98747.47;;;8.82;93.08
2188;BME280;1100;52.014;8.540;2022-12-29T02:05:25;98749.47;;;8.82;93.31
2188;BME280;1100;52.014;8.540;2022-12-29T02:07:52;98755.00;;;8.72;92.35
2188;BME280;1100;52.014;8.540;2022-12-29T02:10:20;98766.22;;;8.59;92.25
2188;BME280;1100;52.014;8.540;2022-12-29T02:12:46;98752.91;;;8.45;92.29
2188;BME280;1100;52.014;8.540;2022-12-29T02:15:12;98754.41;;;8.37;92.42
2188;BME280;1100;52.014;8.540;2022-12-29T02:23:22;98743.47;;;8.23;93.13
2188;BME280;1100;52.014;8.540;2022-12-29T02:32:02;98735.31;;;8.20;93.52
2188;BME280;1100;52.014;8.540;2022-12-29T02:34:47;98730.84;;;8.22;94.02
2188;BME280;1100;52.014;8.540;2022-12-29T02:37:31;98738.56;;;8.28;94.08
2188;BME280;1100;52.014;8.540;2022-12-29T02:40:11;98731.03;;;8.28;94.08
2188;BME280;1100;52.014;8.540;2022-12-29T02:45:58;98732.28;;;8.37;94.72
2188;BME280;1100;52.014;8.540;2022-12-29T02:48:47;98717.38;;;8.43;94.60
2188;BME280;1100;52.014;8.540;2022-12-29T02:51:27;98724.91;;;8.43;94.23
2188;BME280;1100;52.014;8.540;2022-12-29T02:53:56;98718.44;;;8.46;94.62
2188;BME280;1100;52.014;8.540;2022-12-29T02:56:41;98706.66;;;8.55;94.82
2188;BME280;1100;52.014;8.540;2022-12-29T02:59:07;98707.28;;;8.59;94.66
2188;BME280;1100;52.014;8.540;2022-12-29T03:01:55;98716.19;;;8.63;94.89
2188;BME280;1100;52.014;8.540;2022-12-29T03:07:53;98703.75;;;8.77;94.92
2188;BME280;1100;52.014;8.540;2022-12-29T03:10:45;98707.31;;;8.87;95.23
2188;BME280;1100;52.014;8.540;2022-12-29T03:16:27;98697.91;;;9.03;94.89
2188;BME280;1100;52.014;8.540;2022-12-29T03:24:40;98691.13;;;9.14;94.62
2188;BME280;1100;52.014;8.540;2022-12-29T03:27:09;98696.66;;;9.14;94.47
2188;BME280;1100;52.014;8.540;2022-12-29T03:29:41;98696.19;;;9.15;94.53
2188;BME280;1100;52.014;8.540;2022-12-29T03:32:11;98701.59;;;9.19;94.79
2188;BME280;1100;52.014;8.540;2022-12-29T03:34:38;98690.19;;;9.17;94.39
2188;BME280;1100;52.014;8.540;2022-12-29T03:37:14;98700.34;;;9.20;94.57
2188;BME280;1100;52.014;8.540;2022-12-29T03:39:40;98694.66;;;9.24;94.60
2188;BME280;1100;52.014;8.540;2022-12-29T03:42:11;98685.69;;;9.29;94.60
2188;BME280;1100;52.014;8.540;2022-12-29T03:44:40;98680.94;;;9.29;94.16
2188;BME280;1100;52.014;8.540;2022-12-29T03:47:07;98679.41;;;9.28;94.21
2188;BME280;1100;52.014;8.540;2022-12-29T03:49:32;98671.53;;;9.27;94.12
2188;BME280;1100;52.014;8.540;2022-12-29T03:51:58;98668.31;;;9.28;94.38
2188;BME280;1100;52.014;8.540;2022-12-29T03:54:24;98677.84;;;9.27;94.11
2188;BME280;1100;52.014;8.540;2022-12-29T03:56:49;98671.22;;;9.34;94.30
2188;BME280;1100;52.014;8.540;2022-12-29T03:59:15;98673.53;;;9.35;94.23
2188;BME280;1100;52.014;8.540;2022-12-29T04:01:40;98671.06;;;9.38;94.05
2188;BME280;1100;52.014;8.540;2022-12-29T04:04:06;98665.06;;;9.39;94.26
2188;BME280;1100;52.014;8.540;2022-12-29T04:06:31;98676.00;;;9.43;94.09
2188;BME280;1100;52.014;8.540;2022-12-29T04:08:56;98663.34;;;9.42;94.07
2188;BME280;1100;52.014;8.540;2022-12-29T04:11:22;98671.19;;;9.43;94.03
2188;BME280;1100;52.014;8.540;2022-12-29T04:13:47;98675.06;;;9.46;93.54
2188;BME280;1100;52.014;8.540;2022-12-29T04:16:13;98666.56;;;9.50;93.73
2188;BME280;1100;52.014;8.540;2022-12-29T04:18:38;98674.13;;;9.49;93.46
2188;BME280;1100;52.014;8.540;2022-12-29T04:21:04;98662.84;;;9.53;93.77
2188;BME280;1100;52.014;8.540;2022-12-29T04:23:33;98674.72;;;9.53;93.39
2188;BME280;1100;52.014;8.540;2022-12-29T04:25:59;98669.47;;;9.55;93.51
2188;BME280;1100;52.014;8.540;2022-12-29T04:28:25;98672.56;;;9.48;92.86
2188;BME280;1100;52.014;8.540;2022-12-29T04:30:51;98683.53;;;9.42;93.04
2188;BME280;1100;52.014;8.540;2022-12-29T04:33:16;98682.59;;;9.45;93.23
2188;BME280;1100;52.014;8.540;2022-12-29T04:35:43;98666.09;;;9.51;92.95
2188;BME280;1100;52.014;8.540;2022-12-29T04:38:08;98678.91;;;9.49;92.89
2188;BME280;1100;52.014;8.540;2022-12-29T04:40:33;98663.78;;;9.50;93.03
2188;BME280;1100;52.014;8.540;2022-12-29T04:42:59;98669.19;;;9.44;92.50
2188;BME280;1100;52.014;8.540;2022-12-29T04:45:24;98653.50;;;9.41;92.78
2188;BME280;1100;52.014;8.540;2022-12-29T04:47:49;98656.09;;;9.44;92.77
2188;BME280;1100;52.014;8.540;2022-12-29T04:50:15;98645.94;;;9.41;92.49
2188;BME280;1100;52.014;8.540;2022-12-29T04:52:40;98659.66;;;9.35;92.24
2188;BME280;1100;52.014;8.540;2022-12-29T04:55:06;98656.91;;;9.26;92.00
2188;BME280;1100;52.014;8.540;2022-12-29T04:57:31;98651.50;;;9.22;92.19
2188;BME280;1100;52.014;8.540;2022-12-29T04:59:57;98637.19;;;9.15;92.15
2188;BME280;1100;52.014;8.540;2022-12-29T05:02:22;98648.16;;;9.09;92.26
2188;BME280;1100;52.014;8.540;2022-12-29T05:04:47;98654.31;;;9.04;92.20
2188;BME280;1100;52.014;8.540;2022-12-29T05:07:13;98652.78;;;9.03;92.49
2188;BME280;1100;52.014;8.540;2022-12-29T05:09:38;98639.84;;;9.00;92.39
2188;BME280;1100;52.014;8.540;2022-12-29T05:12:04;98646.78;;;9.04;92.62
2188;BME280;1100;52.014;8.540;2022-12-29T05:14:29;98644.00;;;9.04;92.64
2188;BME280;1100;52.014;8.540;2022-12-29T05:16:54;98628.59;;;9.13;92.81
2188;BME280;1100;52.014;8.540;2022-12-29T05:19:20;98628.41;;;9.16;92.55
2188;BME280;1100;52.014;8.540;2022-12-29T05:21:48;98631.34;;;9.22;92.45
2188;BME280;1100;52.014;8.540;2022-12-29T05:24:14;98639.97;;;9.24;92.37
2188;BME280;1100;52.014;8.540;2022-12-29T05:26:40;98631.50;;;9.18;91.86
2188;BME280;1100;52.014;8.540;2022-12-29T05:29:05;98623.22;;;9.09;91.88
2188;BME280;1100;52.014;8.540;2022-12-29T05:31:30;98611.69;;;9.01;91.97
2188;BME280;1100;52.014;8.540;2022-12-29T05:33:59;98614.44;;;9.01;92.23
2188;BME280;1100;52.014;8.540;2022-12-29T05:36:24;98608.44;;;9.03;92.41
2188;BME280;1100;52.014;8.540;2022-12-29T05:38:50;98614.59;;;9.07;92.58
2188;BME280;1100;52.014;8.540;2022-12-29T05:41:15;98613.34;;;9.17;92.77
2188;BME280;1100;52.014;8.540;2022-12-29T05:43:40;98608.84;;;9.29;92.56
2188;BME280;1100;52.014;8.540;2022-12-29T05:46:05;98598.97;;;9.38;92.52
2188;BME280;1100;52.014;8.540;2022-12-29T05:48:31;98596.50;;;9.40;92.43
2188;BME280;1100;52.014;8.540;2022-12-29T05:50:56;98606.34;;;9.41;92.42
2188;BME280;1100;52.014;8.540;2022-12-29T05:53:23;98602.31;;;9.42;92.42
2188;BME280;1100;52.014;8.540;2022-12-29T05:55:48;98609.56;;;9.49;92.29
2188;BME280;1100;52.014;8.540;2022-12-29T05:58:15;98602.91;;;9.55;92.21
2188;BME280;1100;52.014;8.540;2022-12-29T06:00:41;98605.97;;;9.57;92.14
2188;BME280;1100;52.014;8.540;2022-12-29T06:03:06;98604.28;;;9.60;92.11
2188;BME280;1100;52.014;8.540;2022-12-29T06:05:32;98610.88;;;9.63;91.89
2188;BME280;1100;52.014;8.540;2022-12-29T06:07:57;98600.09;;;9.65;91.50
2188;BME280;1100;52.014;8.540;2022-12-29T06:10:23;98605.91;;;9.67;91.76
2188;BME280;1100;52.014;8.540;2022-12-29T06:12:48;98604.69;;;9.68;91.63
2188;BME280;1100;52.014;8.540;2022-12-29T06:15:14;98609.94;;;9.66;91.61
2188;BME280;1100;52.014;8.540;2022-12-29T06:17:40;98607.75;;;9.70;91.59
2188;BME280;1100;52.014;8.540;2022-12-29T06:20:06;98603.09;;;9.76;91.39
2188;BME280;1100;52.014;8.540;2022-12-29T06:22:32;98610.78;;;9.81;91.41
2188;BME280;1100;52.014;8.540;2022-12-29T06:24:57;98559.59;;;9.82;90.95
2188;BME280;1100;52.014;8.540;2022-12-29T06:27:23;98646.72;;;9.85;90.87
2188;BME280;1100;52.014;8.540;2022-12-29T06:29:48;98666.59;;;9.83;91.10
2188;BME280;1100;52.014;8.540;2022-12-29T06:32:14;98711.16;;;9.80;90.59
2188;BME280;1100;52.014;8.540;2022-12-29T06:34:40;98720.66;;;9.45;88.93
2188;BME280;1100;52.014;8.540;2022-12-29T06:37:06;98693.13;;;8.66;87.21
2188;BME280;1100;52.014;8.540;2022-12-29T06:39:31;98687.31;;;8.14;88.13
2188;BME280;1100;52.014;8.540;2022-12-29T06:41:56;98685.50;;;7.79;88.61
2188;BME280;1100;52.014;8.540;2022-12-29T06:44:22;98694.16;;;7.58;89.35
2188;BME280;1100;52.014;8.540;2022-12-29T06:46:47;98679.66;;;7.45;89.79
2188;BME280;1100;52.014;8.540;2022-12-29T06:49:13;98687.00;;;7.39;89.95
2188;BME280;1100;52.014;8.540;2022-12-29T06:51:38;98700.75;;;7.29;89.90
2188;BME280;1100;52.014;8.540;2022-12-29T06:54:04;98698.88;;;7.26;90.40
2188;BME280;1100;52.014;8.540;2022-12-29T06:56:29;98691.50;;;7.23;90.39
2188;BME280;1100;52.014;8.540;2022-12-29T06:58:55;98703.44;;;7.20;90.72
2188;BME280;1100;52.014;8.540;2022-12-29T07:01:20;98694.06;;;7.17;90.53
2188;BME280;1100;52.014;8.540;2022-12-29T07:03:48;98699.72;;;7.14;90.87
2188;BME280;1100;52.014;8.540;2022-12-29T07:06:13;98710.78;;;7.14;91.09
2188;BME280;1100;52.014;8.540;2022-12-29T07:08:39;98724.91;;;7.16;90.98
2188;BME280;1100;52.014;8.540;2022-12-29T07:11:05;98721.25;;;7.19;91.44
2188;BME280;1100;52.014;8.540;2022-12-29T07:13:30;98723.75;;;7.26;91.40
2188;BME280;1100;52.014;8.540;2022-12-29T07:15:55;98718.09;;;7.30;91.54
2188;BME280;1100;52.014;8.540;2022-12-29T07:18:21;98716.44;;;7.32;91.36
2188;BME280;1100;52.014;8.540;2022-12-29T07:20:49;98719.81;;;7.37;91.57
2188;BME280;1100;52.014;8.540;2022-12-29T07:23:14;98714.94;;;7.41;91.56
2188;BME280;1100;52.014;8.540;2022-12-29T07:25:39;98726.00;;;7.41;91.44
2188;BME280;1100;52.014;8.540;2022-12-29T07:28:06;98727.22;;;7.40;91.45
2188;BME280;1100;52.014;8.540;2022-12-29T07:30:32;98731.41;;;7.44;91.88
2188;BME280;1100;52.014;8.540;2022-12-29T07:32:57;98715.94;;;7.56;92.34
2188;BME280;1100;52.014;8.540;2022-12-29T07:35:22;98735.09;;;7.73;92.44
2188;BME280;1100;52.014;8.540;2022-12-29T07:37:48;98743.91;;;7.81;92.49
2188;BME280;1100;52.014;8.540;2022-12-29T07:40:13;98744.84;;;7.87;92.34
2188;BME280;1100;52.014;8.540;2022-12-29T07:42:38;98736.28;;;7.94;92.60
2188;BME280;1100;52.014;8.540;2022-12-29T07:45:04;98740.66;;;8.05;92.61
2188;BME280;1100;52.014;8.540;2022-12-29T07:47:30;98736.50;;;8.09;92.24
2188;BME280;1100;52.014;8.540;2022-12-29T07:49:55;98754.31;;;8.08;92.43
2188;BME280;1100;52.014;8.540;2022-12-29T07:52:20;98745.75;;;8.16;92.87
2188;BME280;1100;52.014;8.540;2022-12-29T07:54:45;98751.00;;;8.23;92.49
2188;BME280;1100;52.014;8.540;2022-12-29T07:57:11;98761.28;;;8.22;92.36
2188;BME280;1100;52.014;8.540;2022-12-29T07:59:36;98758.69;;;8.19;92.57
2188;BME280;1100;52.014;8.540;2022-12-29T08:02:02;98762.22;;;8.19;92.52
2188;BME280;1100;52.014;8.540;2022-12-29T08:04:27;98767.75;;;8.19;92.57
2188;BME280;1100;52.014;8.540;2022-12-29T08:06:52;98771.63;;;8.22;92.31
2188;BME280;1100;52.014;8.540;2022-12-29T08:09:18;98763.00;;;8.20;92.14
2188;BME280;1100;52.014;8.540;2022-12-29T08:11:44;98772.53;;;8.19;92.45
2188;BME280;1100;52.014;8.540;2022-12-29T08:14:09;98778.69;;;8.23;92.38
2188;BME280;1100;52.014;8.540;2022-12-29T08:16:35;98779.91;;;8.22;92.40
2188;BME280;1100;52.014;8.540;2022-12-29T08:19:01;98779.75;;;8.26;92.44
2188;BME280;1100;52.014;8.540;2022-12-29T08:21:27;98780.88;;;8.28;92.46
2188;BME280;1100;52.014;8.540;2022-12-29T08:23:52;98781.50;;;8.32;92.79
2188;BME280;1100;52.014;8.540;2022-12-29T08:26:18;98785.97;;;8.39;92.34
2188;BME280;1100;52.014;8.540;2022-12-29T08:28:43;98793.88;;;8.50;92.67
2188;BME280;1100;52.014;8.540;2022-12-29T08:31:08;98789.91;;;8.60;92.72
2188;BME280;1100;52.014;8.540;2022-12-29T08:33:34;98790.84;;;8.67;92.43
2188;BME280;1100;52.014;8.540;2022-12-29T08:36:01;98787.94;;;8.70;92.40
2188;BME280;1100;52.014;8.540;2022-12-29T08:38:28;98789.63;;;8.68;92.41
2188;BME280;1100;52.014;8.540;2022-12-29T08:40:54;98802.38;;;8.65;92.04
2188;BME280;1100;52.014;8.540;2022-12-29T08:43:19;98789.91;;;8.60;92.28
2188;BME280;1100;52.014;8.540;2022-12-29T08:45:44;98805.59;;;8.54;91.96
2188;BME280;1100;52.014;8.540;2022-12-29T08:48:10;98813.06;;;8.44;91.75
2188;BME280;1100;52.014;8.540;2022-12-29T08:50:35;98810.41;;;8.31;91.72
2188;BME280;1100;52.014;8.540;2022-12-29T08:53:00;98819.13;;;8.20;91.76
2188;BME280;1100;52.014;8.540;2022-12-29T08:55:25;98810.63;;;8.15;91.83
2188;BME280;1100;52.014;8.540;2022-12-29T08:57:51;98810.00;;;8.10;92.18
2188;BME280;1100;52.014;8.540;2022-12-29T09:00:19;98821.66;;;8.05;91.95
2188;BME280;1100;52.014;8.540;2022-12-29T09:02:46;98820.69;;;7.99;91.80
2188;BME280;1100;52.014;8.540;2022-12-29T09:05:11;98822.50;;;7.93;92.22
2188;BME280;1100;52.014;8.540;2022-12-29T09:07:37;98820.19;;;7.91;92.46
2188;BME280;1100;52.014;8.540;2022-12-29T09:10:03;98815.56;;;7.88;92.24
2188;BME280;1100;52.014;8.540;2022-12-29T09:12:29;98820.47;;;7.84;92.42
2188;BME280;1100;52.014;8.540;2022-12-29T09:14:54;98827.66;;;7.81;92.00
2188;BME280;1100;52.014;8.540;2022-12-29T09:17:19;98816.28;;;7.79;92.39
2188;BME280;1100;52.014;8.540;2022-12-29T09:20:04;98817.81;;;8.34;91.59
2188;BME280;1100;52.014;8.540;2022-12-29T09:22:29;98809.47;;;8.66;91.27
2188;BME280;1100;52.014;8.540;2022-12-29T09:24:54;98803.91;;;8.66;90.99
2188;BME280;1100;52.014;8.540;2022-12-29T09:27:20;98813.44;;;8.56;91.55
2188;BME280;1100;52.014;8.540;2022-12-29T09:29:45;98806.59;;;8.47;91.60
2188;BME280;1100;52.014;8.540;2022-12-29T09:32:10;98817.66;;;8.38;92.00
2188;BME280;1100;52.014;8.540;2022-12-29T09:34:36;98813.47;;;8.33;92.21
2188;BME280;1100;52.014;8.540;2022-12-29T09:37:01;98825.97;;;8.38;92.19
2188;BME280;1100;52.014;8.540;2022-12-29T09:39:26;98828.97;;;8.53;92.09
2188;BME280;1100;52.014;8.540;2022-12-29T09:42:16;98823.41;;;8.53;92.41
2188;BME280;1100;52.014;8.540;2022-12-29T09:45:03;98824.63;;;8.52;92.49
2188;BME280;1100;52.014;8.540;2022-12-29T09:47:29;98833.38;;;8.51;92.72
2188;BME280;1100;52.014;8.540;2022-12-29T09:52:51;98830.63;;;8.51;92.74
2188;BME280;1100;52.014;8.540;2022-12-29T09:55:23;98843.44;;;8.57;92.76
2188;BME280;1100;52.014;8.540;2022-12-29T10:00:28;98837.78;;;8.61;91.97
2188;BME280;1100;52.014;8.540;2022-12-29T10:03:06;98837.59;;;8.55;92.08
2188;BME280;1100;52.014;8.540;2022-12-29T10:05:46;98828.97;;;8.53;91.66
2188;BME280;1100;52.014;8.540;2022-12-29T10:08:39;98839.16;;;8.56;91.96
2188;BME280;1100;52.014;8.540;2022-12-29T10:19:13;98839.97;;;8.76;90.20
2188;BME280;1100;52.014;8.540;2022-12-29T10:24:21;98849.63;;;8.62;90.37
2188;BME280;1100;52.014;8.540;2022-12-29T10:26:50;98842.25;;;8.68;90.20
2188;BME280;1100;52.014;8.540;2022-12-29T10:31:55;98851.78;;;9.36;89.87
2188;BME280;1100;52.014;8.540;2022-12-29T10:34:26;98841.47;;;9.65;88.78
2188;BME280;1100;52.014;8.540;2022-12-29T10:36:58;98834.31;;;9.92;88.09
2188;BME280;1100;52.014;8.540;2022-12-29T10:39:44;98835.47;;;10.28;88.43
2188;BME280;1100;52.014;8.540;2022-12-29T10:44:43;98838.00;;;10.07;89.10
2188;BME280;1100;52.014;8.540;2022-12-29T10:47:15;98840.81;;;9.89;89.00
2188;BME280;1100;52.014;8.540;2022-12-29T10:49:45;98843.00;;;9.75;89.24
2188;BME280;1100;52.014;8.540;2022-12-29T10:52:13;98834.69;;;9.66;89.27
2188;BME280;1100;52.014;8.540;2022-12-29T10:57:38;98849.16;;;9.51;89.12
2188;BME280;1100;52.014;8.540;2022-12-29T11:00:13;98839.91;;;9.45;88.78
2188;BME280;1100;52.014;8.540;2022-12-29T11:05:24;98830.84;;;9.44;88.36
2188;BME280;1100;52.014;8.540;2022-12-29T11:07:58;98825.75;;;9.43;87.52
2188;BME280;1100;52.014;8.540;2022-12-29T11:12:59;98843.31;;;9.40;87.91
2188;BME280;1100;52.014;8.540;2022-12-29T11:15:24;98831.59;;;9.35;87.36
2188;BME280;1100;52.014;8.540;2022-12-29T11:17:53;98836.06;;;9.33;87.15
2188;BME280;1100;52.014;8.540;2022-12-29T11:20:38;98835.91;;;9.27;87.02
2188;BME280;1100;52.014;8.540;2022-12-29T11:23:05;98832.50;;;9.23;86.81
2188;BME280;1100;52.014;8.540;2022-12-29T11:25:46;98832.19;;;9.21;86.70
2188;BME280;1100;52.014;8.540;2022-12-29T11:28:16;98829.41;;;9.21;87.40
2188;BME280;1100;52.014;8.540;2022-12-29T11:30:42;98842.22;;;9.18;87.26
2188;BME280;1100;52.014;8.540;2022-12-29T11:33:08;98850.22;;;9.16;87.14
2188;BME280;1100;52.014;8.540;2022-12-29T11:35:38;98840.81;;;9.14;86.39
2188;BME280;1100;52.014;8.540;2022-12-29T11:38:06;98838.03;;;9.14;86.73
2188;BME280;1100;52.014;8.540;2022-12-29T11:40:41;98839.59;;;9.15;86.78
2188;BME280;1100;52.014;8.540;2022-12-29T11:43:06;98860.84;;;9.18;86.15
2188;BME280;1100;52.014;8.540;2022-12-29T11:45:35;98847.75;;;9.18;86.64
2188;BME280;1100;52.014;8.540;2022-12-29T11:48:17;98849.00;;;9.17;86.59
2188;BME280;1100;52.014;8.540;2022-12-29T11:50:50;98845.91;;;9.15;85.93
2188;BME280;1100;52.014;8.540;2022-12-29T11:55:59;98849.16;;;9.23;86.23
2188;BME280;1100;52.014;8.540;2022-12-29T11:58:30;98844.84;;;9.22;85.49
2188;BME280;1100;52.014;8.540;2022-12-29T12:03:30;98855.75;;;9.26;85.78
2188;BME280;1100;52.014;8.540;2022-12-29T12:06:00;98849.47;;;9.25;85.02
2188;BME280;1100;52.014;8.540;2022-12-29T12:08:44;98847.44;;;9.26;85.52
2188;BME280;1100;52.014;8.540;2022-12-29T12:11:32;98850.22;;;9.26;85.78
2188;BME280;1100;52.014;8.540;2022-12-29T12:16:39;98865.94;;;9.29;85.06
2188;BME280;1100;52.014;8.540;2022-12-29T12:21:46;98871.97;;;9.37;84.52
2188;BME280;1100;52.014;8.540;2022-12-29T12:24:28;98861.81;;;9.33;84.71
2188;BME280;1100;52.014;8.540;2022-12-29T12:27:14;98866.72;;;9.29;84.72
2188;BME280;1100;52.014;8.540;2022-12-29T12:30:02;98876.28;;;9.28;84.95
2188;BME280;1100;52.014;8.540;2022-12-29T12:32:45;98863.63;;;9.27;84.55
2188;BME280;1100;52.014;8.540;2022-12-29T12:35:15;98871.47;;;9.29;83.65
2188;BME280;1100;52.014;8.540;2022-12-29T12:38:09;98864.59;;;9.33;83.34
2188;BME280;1100;52.014;8.540;2022-12-29T12:41:10;98884.28;;;9.35;83.81
2188;BME280;1100;52.014;8.540;2022-12-29T12:43:49;98892.94;;;9.38;83.75
2188;BME280;1100;52.014;8.540;2022-12-29T12:49:26;98875.69;;;9.33;83.68
2188;BME280;1100;52.014;8.540;2022-12-29T12:57:56;98910.81;;;9.37;83.09
2188;BME280;1100;52.014;8.540;2022-12-29T13:00:26;98897.69;;;9.37;82.39
2188;BME280;1100;52.014;8.540;2022-12-29T13:03:13;98891.41;;;9.37;81.42
2188;BME280;1100;52.014;8.540;2022-12-29T13:05:50;98912.81;;;9.36;82.09
2188;BME280;1100;52.014;8.540;2022-12-29T13:11:32;98924.34;;;9.34;82.23
2188;BME280;1100;52.014;8.540;2022-12-29T13:14:11;98919.72;;;9.31;81.56
2188;BME280;1100;52.014;8.540;2022-12-29T13:19:11;98924.50;;;9.31;81.86
2188;BME280;1100;52.014;8.540;2022-12-29T13:27:32;98938.81;;;9.29;80.83
2188;BME280;1100;52.014;8.540;2022-12-29T13:30:09;98962.25;;;9.28;80.51
2188;BME280;1100;52.014;8.540;2022-12-29T13:40:52;98960.34;;;9.16;80.64
2188;BME280;1100;52.014;8.540;2022-12-29T13:43:19;98979.44;;;9.14;80.70
2188;BME280;1100;52.014;8.540;2022-12-29T13:45:45;98978.81;;;9.09;81.28
2188;BME280;1100;52.014;8.540;2022-12-29T13:48:25;98991.72;;;9.03;80.96
2188;BME280;1100;52.014;8.540;2022-12-29T13:50:58;98990.78;;;8.97;81.36
2188;BME280;1100;52.014;8.540;2022-12-29T13:56:19;98999.34;;;8.90;80.88
2188;BME280;1100;52.014;8.540;2022-12-29T13:59:09;98995.50;;;8.87;81.13
2188;BME280;1100;52.014;8.540;2022-12-29T14:01:45;99003.69;;;8.91;81.15
2188;BME280;1100;52.014;8.540;2022-12-29T14:04:20;98992.59;;;8.91;80.82
2188;BME280;1100;52.014;8.540;2022-12-29T14:06:56;99010.75;;;8.92;81.25
2188;BME280;1100;52.014;8.540;2022-12-29T14:09:42;99006.00;;;8.92;80.91
2188;BME280;1100;52.014;8.540;2022-12-29T14:15:02;99019.06;;;8.92;80.63
2188;BME280;1100;52.014;8.540;2022-12-29T14:17:28;99006.13;;;8.89;80.74
2188;BME280;1100;52.014;8.540;2022-12-29T14:19:53;99022.75;;;8.89;80.49
2188;BME280;1100;52.014;8.540;2022-12-29T14:22:24;99014.91;;;8.87;80.38
2188;BME280;1100;52.014;8.540;2022-12-29T14:24:50;99010.25;;;8.84;80.66
2188;BME280;1100;52.014;8.540;2022-12-29T14:29:42;99030.13;;;8.82;81.08
2188;BME280;1100;52.014;8.540;2022-12-29T14:34:45;99050.03;;;8.68;80.13
2188;BME280;1100;52.014;8.540;2022-12-29T14:37:25;99054.44;;;8.43;80.15
2188;BME280;1100;52.014;8.540;2022-12-29T14:40:23;99047.13;;;8.14;80.48
2188;BME280;1100;52.014;8.540;2022-12-29T14:42:51;99037.88;;;7.94;80.91
2188;BME280;1100;52.014;8.540;2022-12-29T14:47:46;99045.00;;;7.82;81.93
2188;BME280;1100;52.014;8.540;2022-12-29T14:52:55;99036.13;;;7.88;82.91
2188;BME280;1100;52.014;8.540;2022-12-29T14:55:41;99045.28;;;7.97;82.76
2188;BME280;1100;52.014;8.540;2022-12-29T14:58:28;99041.63;;;8.01;83.05
2188;BME280;1100;52.014;8.540;2022-12-29T15:00:56;99043.06;;;8.05;82.93
2188;BME280;1100;52.014;8.540;2022-12-29T15:03:29;99049.25;;;8.09;83.33
2188;BME280;1100;52.014;8.540;2022-12-29T15:06:05;99047.78;;;8.18;83.17
2188;BME280;1100;52.014;8.540;2022-12-29T15:08:45;99044.00;;;8.25;83.00
2188;BME280;1100;52.014;8.540;2022-12-29T15:11:17;99049.72;;;8.30;82.79
2188;BME280;1100;52.014;8.540;2022-12-29T15:13:44;99052.84;;;8.32;82.88
2188;BME280;1100;52.014;8.540;2022-12-29T15:16:30;99061.13;;;8.32;82.94
2188;BME280;1100;52.014;8.540;2022-12-29T15:18:59;99056.38;;;8.33;82.98
2188;BME280;1100;52.014;8.540;2022-12-29T15:21:34;99053.91;;;8.35;82.89
2188;BME280;1100;52.014;8.540;2022-12-29T15:24:00;99065.31;;;8.37;82.52
2188;BME280;1100;52.014;8.540;2022-12-29T15:26:40;99068.28;;;8.43;82.68
2188;BME280;1100;52.014;8.540;2022-12-29T15:29:05;99067.72;;;8.48;82.46
2188;BME280;1100;52.014;8.540;2022-12-29T15:31:50;99069.25;;;8.49;82.47
2188;BME280;1100;52.014;8.540;2022-12-29T15:34:20;99063.41;;;8.47;81.75
2188;BME280;1100;52.014;8.540;2022-12-29T15:36:49;99068.50;;;8.48;82.34
2188;BME280;1100;52.014;8.540;2022-12-29T15:39:19;99071.72;;;8.47;82.16